sensor_id;sensor_type;location;lat;lon;timestamp;temperature;humidity
20384;DHT22;46458;50.966;7.002;2024-03-23T00:54:59;9.50;99.90
20384;DHT22;46458;50.966;7.002;2024-03-23T00:57:29;9.60;99.90
20384;DHT22;46458;50.966;7.002;2024-03-23T00:59:55;9.60;99.90
20384;DHT22;46458;50.966;7.002;2024-03-23T01:02:21;9.40;99.90
20384;DHT22;46458;50.966;7.002;2024-03-23T01:04:48;9.40;99.90
20384;DHT22;46458;50.966;7.002;2024-03-23T01:07:14;9.50;1.00
20384;DHT22;46458;50.966;7.002;2024-03-23T01:09:40;9.60;99.90
20384;DHT22;46458;50.966;7.002;2024-03-23T01:12:09;9.40;99.90
20384;DHT22;46458;50.966;7.002;2024-03-23T01:14:35;9.50;1.00
20384;DHT22;46458;50.966;7.002;2024-03-23T01:17:02;9.50;1.00
20384;DHT22;46458;50.966;7.002;2024-03-23T01:19:28;9.20;1.00
20384;DHT22;46458;50.966;7.002;2024-03-23T01:21:54;9.40;1.00
20384;DHT22;46458;50.966;7.002;2024-03-23T01:24:21;9.30;1.00
20384;DHT22;46458;50.966;7.002;2024-03-23T01:26:47;9.40;1.00
20384;DHT22;46458;50.966;7.002;2024-03-23T01:29:16;9.30;61.20
20384;DHT22;46458;50.966;7.002;2024-03-23T01:34:10;8.90;1.00
20384;DHT22;46458;50.966;7.002;2024-03-23T01:36:36;9.10;99.90
20384;DHT22;46458;50.966;7.002;2024-03-23T01:39:05;9.00;1.00
20384;DHT22;46458;50.966;7.002;2024-03-23T01:41:32;8.80;99.90
20384;DHT22;46458;50.966;7.002;2024-03-23T01:43:58;8.70;1.00
20384;DHT22;46458;50.966;7.002;2024-03-23T01:46:31;8.90;1.00
20384;DHT22;46458;50.966;7.002;2024-03-23T01:48:58;8.90;1.00
20384;DHT22;46458;50.966;7.002;2024-03-23T01:51:24;8.80;1.00
20384;DHT22;46458;50.966;7.002;2024-03-23T01:53:51;8.70;1.00
20384;DHT22;46458;50.966;7.002;2024-03-23T01:56:21;8.90;99.90
20384;DHT22;46458;50.966;7.002;2024-03-23T01:58:48;8.50;1.00
20384;DHT22;46458;50.966;7.002;2024-03-23T02:01:14;8.70;99.90
20384;DHT22;46458;50.966;7.002;2024-03-23T02:03:43;8.70;99.90
20384;DHT22;46458;50.966;7.002;2024-03-23T02:06:10;8.70;1.00
20384;DHT22;46458;50.966;7.002;2024-03-23T02:08:36;8.80;1.00
20384;DHT22;46458;50.966;7.002;2024-03-23T02:11:03;8.70;1.00
20384;DHT22;46458;50.966;7.002;2024-03-23T02:13:32;8.60;99.90
20384;DHT22;46458;50.966;7.002;2024-03-23T02:15:58;10.10;99.90
20384;DHT22;46458;50.966;7.002;2024-03-23T02:18:25;8.60;1.00
20384;DHT22;46458;50.966;7.002;2024-03-23T02:20:56;8.50;1.00
20384;DHT22;46458;50.966;7.002;2024-03-23T02:23:25;8.60;99.90
20384;DHT22;46458;50.966;7.002;2024-03-23T02:25:51;8.40;1.00
20384;DHT22;46458;50.966;7.002;2024-03-23T02:28:20;8.40;1.00
20384;DHT22;46458;50.966;7.002;2024-03-23T02:30:47;9.00;99.90
20384;DHT22;46458;50.966;7.002;2024-03-23T02:33:13;8.50;1.00
20384;DHT22;46458;50.966;7.002;2024-03-23T02:35:39;8.10;1.00
20384;DHT22;46458;50.966;7.002;2024-03-23T02:38:06;8.40;99.90
20384;DHT22;46458;50.966;7.002;2024-03-23T02:40:34;8.60;1.00
20384;DHT22;46458;50.966;7.002;2024-03-23T02:43:01;8.60;1.00
20384;DHT22;46458;50.966;7.002;2024-03-23T02:45:30;9.00;94.70
20384;DHT22;46458;50.966;7.002;2024-03-23T02:47:56;8.10;99.90
20384;DHT22;46458;50.966;7.002;2024-03-23T02:52:49;7.80;1.00
20384;DHT22;46458;50.966;7.002;2024-03-23T02:55:15;8.00;1.00
20384;DHT22;46458;50.966;7.002;2024-03-23T02:57:44;7.90;99.90
20384;DHT22;46458;50.966;7.002;2024-03-23T03:00:11;7.80;77.50
20384;DHT22;46458;50.966;7.002;2024-03-23T03:02:37;7.90;1.00
20384;DHT22;46458;50.966;7.002;2024-03-23T03:05:04;7.90;79.30
20384;DHT22;46458;50.966;7.002;2024-03-23T03:07:30;7.80;1.00
20384;DHT22;46458;50.966;7.002;2024-03-23T03:10:00;7.60;1.00
20384;DHT22;46458;50.966;7.002;2024-03-23T03:12:26;7.80;1.00
20384;DHT22;46458;50.966;7.002;2024-03-23T03:14:55;7.90;99.90
20384;DHT22;46458;50.966;7.002;2024-03-23T03:17:21;7.70;1.00
20384;DHT22;46458;50.966;7.002;2024-03-23T03:19:47;7.90;99.90
20384;DHT22;46458;50.966;7.002;2024-03-23T03:22:14;7.70;1.00
20384;DHT22;46458;50.966;7.002;2024-03-23T03:24:40;7.90;1.00
20384;DHT22;46458;50.966;7.002;2024-03-23T03:27:06;7.70;1.00
20384;DHT22;46458;50.966;7.002;2024-03-23T03:29:32;7.60;1.00
20384;DHT22;46458;50.966;7.002;2024-03-23T03:32:02;8.10;99.90
20384;DHT22;46458;50.966;7.002;2024-03-23T03:34:28;7.70;1.00
20384;DHT22;46458;50.966;7.002;2024-03-23T03:36:55;7.70;99.90
20384;DHT22;46458;50.966;7.002;2024-03-23T03:39:21;7.70;99.90
20384;DHT22;46458;50.966;7.002;2024-03-23T03:41:48;7.80;99.90
20384;DHT22;46458;50.966;7.002;2024-03-23T03:44:14;7.50;99.90
20384;DHT22;46458;50.966;7.002;2024-03-23T03:46:41;7.50;54.70
20384;DHT22;46458;50.966;7.002;2024-03-23T03:49:10;7.80;1.00
20384;DHT22;46458;50.966;7.002;2024-03-23T03:51:36;7.40;99.90
20384;DHT22;46458;50.966;7.002;2024-03-23T03:54:04;7.60;99.90
20384;DHT22;46458;50.966;7.002;2024-03-23T03:56:34;7.40;1.00
20384;DHT22;46458;50.966;7.002;2024-03-23T03:59:00;7.70;1.00
20384;DHT22;46458;50.966;7.002;2024-03-23T04:01:26;7.60;1.00
20384;DHT22;46458;50.966;7.002;2024-03-23T04:03:52;7.60;1.00
20384;DHT22;46458;50.966;7.002;2024-03-23T04:06:23;7.60;1.00
20384;DHT22;46458;50.966;7.002;2024-03-23T04:08:50;7.70;99.90
20384;DHT22;46458;50.966;7.002;2024-03-23T04:11:16;7.70;1.00
20384;DHT22;46458;50.966;7.002;2024-03-23T04:13:45;7.50;1.00
20384;DHT22;46458;50.966;7.002;2024-03-23T04:16:11;7.70;1.00
20384;DHT22;46458;50.966;7.002;2024-03-23T04:18:37;7.50;28.40
20384;DHT22;46458;50.966;7.002;2024-03-23T04:21:04;7.70;1.00
20384;DHT22;46458;50.966;7.002;2024-03-23T04:23:32;7.50;1.00
20384;DHT22;46458;50.966;7.002;2024-03-23T04:26:03;7.60;99.90
20384;DHT22;46458;50.966;7.002;2024-03-23T04:28:30;7.20;99.90
20384;DHT22;46458;50.966;7.002;2024-03-23T04:30:56;7.60;1.00
20384;DHT22;46458;50.966;7.002;2024-03-23T04:33:22;7.50;1.00
20384;DHT22;46458;50.966;7.002;2024-03-23T04:35:49;7.60;1.00
20384;DHT22;46458;50.966;7.002;2024-03-23T04:38:17;7.50;1.00
20384;DHT22;46458;50.966;7.002;2024-03-23T04:40:54;7.20;99.90
20384;DHT22;46458;50.966;7.002;2024-03-23T04:43:20;7.40;99.90
20384;DHT22;46458;50.966;7.002;2024-03-23T04:45:46;7.50;1.00
20384;DHT22;46458;50.966;7.002;2024-03-23T04:48:12;7.20;11.70
20384;DHT22;46458;50.966;7.002;2024-03-23T04:50:41;7.40;1.00
20384;DHT22;46458;50.966;7.002;2024-03-23T04:53:10;7.70;1.00
20384;DHT22;46458;50.966;7.002;2024-03-23T04:55:37;7.50;1.00
20384;DHT22;46458;50.966;7.002;2024-03-23T04:58:06;7.60;1.00
20384;DHT22;46458;50.966;7.002;2024-03-23T05:00:32;7.60;99.90
20384;DHT22;46458;50.966;7.002;2024-03-23T05:02:58;7.50;1.00
20384;DHT22;46458;50.966;7.002;2024-03-23T05:05:27;7.50;1.00
20384;DHT22;46458;50.966;7.002;2024-03-23T05:07:53;7.30;99.90
20384;DHT22;46458;50.966;7.002;2024-03-23T05:10:19;7.50;1.00
20384;DHT22;46458;50.966;7.002;2024-03-23T05:12:46;7.50;99.90
20384;DHT22;46458;50.966;7.002;2024-03-23T05:15:17;7.60;1.00
20384;DHT22;46458;50.966;7.002;2024-03-23T05:17:44;7.60;1.00
20384;DHT22;46458;50.966;7.002;2024-03-23T05:20:10;7.40;99.90
20384;DHT22;46458;50.966;7.002;2024-03-23T05:22:36;7.40;1.00
20384;DHT22;46458;50.966;7.002;2024-03-23T05:25:05;7.50;99.90
20384;DHT22;46458;50.966;7.002;2024-03-23T05:27:32;7.40;1.00
20384;DHT22;46458;50.966;7.002;2024-03-23T05:30:01;7.60;1.00
20384;DHT22;46458;50.966;7.002;2024-03-23T05:32:30;7.40;99.90
20384;DHT22;46458;50.966;7.002;2024-03-23T05:34:56;7.50;1.00
20384;DHT22;46458;50.966;7.002;2024-03-23T05:37:22;7.60;99.90
20384;DHT22;46458;50.966;7.002;2024-03-23T05:39:49;7.50;1.00
20384;DHT22;46458;50.966;7.002;2024-03-23T05:42:15;7.70;1.00
20384;DHT22;46458;50.966;7.002;2024-03-23T05:44:43;7.50;99.90
20384;DHT22;46458;50.966;7.002;2024-03-23T05:47:10;7.50;99.90
20384;DHT22;46458;50.966;7.002;2024-03-23T05:49:39;7.50;1.00
20384;DHT22;46458;50.966;7.002;2024-03-23T05:52:05;7.50;1.00
20384;DHT22;46458;50.966;7.002;2024-03-23T05:54:32;7.40;99.90
20384;DHT22;46458;50.966;7.002;2024-03-23T05:56:58;7.60;1.00
20384;DHT22;46458;50.966;7.002;2024-03-23T05:59:24;7.50;49.60
20384;DHT22;46458;50.966;7.002;2024-03-23T06:01:50;7.70;1.00
20384;DHT22;46458;50.966;7.002;2024-03-23T06:04:16;7.60;1.00
20384;DHT22;46458;50.966;7.002;2024-03-23T06:06:47;7.50;99.90
20384;DHT22;46458;50.966;7.002;2024-03-23T06:09:14;7.40;99.90
20384;DHT22;46458;50.966;7.002;2024-03-23T06:11:40;7.50;1.00
20384;DHT22;46458;50.966;7.002;2024-03-23T06:14:06;7.50;1.00
20384;DHT22;46458;50.966;7.002;2024-03-23T06:16:32;7.60;1.00
20384;DHT22;46458;50.966;7.002;2024-03-23T06:18:58;7.50;1.00
20384;DHT22;46458;50.966;7.002;2024-03-23T06:21:25;7.30;1.00
20384;DHT22;46458;50.966;7.002;2024-03-23T06:23:57;7.60;1.00
20384;DHT22;46458;50.966;7.002;2024-03-23T06:26:23;7.40;1.00
20384;DHT22;46458;50.966;7.002;2024-03-23T06:28:49;7.40;1.00
20384;DHT22;46458;50.966;7.002;2024-03-23T06:31:15;7.40;99.90
20384;DHT22;46458;50.966;7.002;2024-03-23T06:33:41;7.50;1.00
20384;DHT22;46458;50.966;7.002;2024-03-23T06:36:09;7.30;1.00
20384;DHT22;46458;50.966;7.002;2024-03-23T06:38:36;7.20;1.00
20384;DHT22;46458;50.966;7.002;2024-03-23T06:41:05;7.00;1.00
20384;DHT22;46458;50.966;7.002;2024-03-23T06:43:31;7.00;1.00
20384;DHT22;46458;50.966;7.002;2024-03-23T06:45:58;7.10;99.90
20384;DHT22;46458;50.966;7.002;2024-03-23T06:48:24;7.20;99.90
20384;DHT22;46458;50.966;7.002;2024-03-23T06:50:55;7.40;1.00
20384;DHT22;46458;50.966;7.002;2024-03-23T06:53:22;7.30;1.00
20384;DHT22;46458;50.966;7.002;2024-03-23T06:55:50;7.00;99.90
20384;DHT22;46458;50.966;7.002;2024-03-23T06:58:20;7.20;99.90
20384;DHT22;46458;50.966;7.002;2024-03-23T07:00:47;7.10;1.00
20384;DHT22;46458;50.966;7.002;2024-03-23T07:03:13;7.10;1.00
20384;DHT22;46458;50.966;7.002;2024-03-23T07:05:39;7.10;1.00
20384;DHT22;46458;50.966;7.002;2024-03-23T07:08:06;7.20;1.00
20384;DHT22;46458;50.966;7.002;2024-03-23T07:10:37;7.10;1.00
20384;DHT22;46458;50.966;7.002;2024-03-23T07:13:04;7.20;1.00
20384;DHT22;46458;50.966;7.002;2024-03-23T07:15:33;7.20;99.90
20384;DHT22;46458;50.966;7.002;2024-03-23T07:18:00;7.20;1.00
20384;DHT22;46458;50.966;7.002;2024-03-23T07:20:26;7.40;99.90
20384;DHT22;46458;50.966;7.002;2024-03-23T07:22:52;7.30;1.00
20384;DHT22;46458;50.966;7.002;2024-03-23T07:25:21;7.70;1.00
20384;DHT22;46458;50.966;7.002;2024-03-23T07:27:48;7.50;3.70
20384;DHT22;46458;50.966;7.002;2024-03-23T07:30:14;7.70;1.00
20384;DHT22;46458;50.966;7.002;2024-03-23T07:32:44;7.40;99.90
20384;DHT22;46458;50.966;7.002;2024-03-23T07:35:10;7.60;1.00
20384;DHT22;46458;50.966;7.002;2024-03-23T07:37:36;7.70;99.90
20384;DHT22;46458;50.966;7.002;2024-03-23T07:40:03;7.60;99.90
20384;DHT22;46458;50.966;7.002;2024-03-23T07:42:30;7.60;1.00
20384;DHT22;46458;50.966;7.002;2024-03-23T07:44:56;8.00;99.90
20384;DHT22;46458;50.966;7.002;2024-03-23T07:47:22;7.90;1.00
20384;DHT22;46458;50.966;7.002;2024-03-23T07:49:51;8.20;1.00
20384;DHT22;46458;50.966;7.002;2024-03-23T07:52:18;8.10;99.90
20384;DHT22;46458;50.966;7.002;2024-03-23T07:54:47;8.40;1.00
20384;DHT22;46458;50.966;7.002;2024-03-23T07:57:13;8.70;99.90
20384;DHT22;46458;50.966;7.002;2024-03-23T07:59:40;8.80;1.00
20384;DHT22;46458;50.966;7.002;2024-03-23T08:02:06;9.20;99.90
20384;DHT22;46458;50.966;7.002;2024-03-23T08:04:33;9.20;1.00
20384;DHT22;46458;50.966;7.002;2024-03-23T08:07:01;9.40;1.00
20384;DHT22;46458;50.966;7.002;2024-03-23T08:09:28;9.50;99.90
20384;DHT22;46458;50.966;7.002;2024-03-23T08:11:54;9.50;1.00
20384;DHT22;46458;50.966;7.002;2024-03-23T08:14:20;9.70;99.90
20384;DHT22;46458;50.966;7.002;2024-03-23T08:16:46;10.00;1.00
20384;DHT22;46458;50.966;7.002;2024-03-23T08:19:13;10.00;99.90
20384;DHT22;46458;50.966;7.002;2024-03-23T08:21:39;10.10;1.00
20384;DHT22;46458;50.966;7.002;2024-03-23T08:24:08;9.90;1.00
20384;DHT22;46458;50.966;7.002;2024-03-23T08:26:34;10.20;39.00
20384;DHT22;46458;50.966;7.002;2024-03-23T08:29:04;10.30;1.00
20384;DHT22;46458;50.966;7.002;2024-03-23T08:31:31;10.50;1.00
20384;DHT22;46458;50.966;7.002;2024-03-23T08:33:57;11.00;1.00
20384;DHT22;46458;50.966;7.002;2024-03-23T08:36:23;11.60;1.00
20384;DHT22;46458;50.966;7.002;2024-03-23T08:38:50;12.10;1.00
20384;DHT22;46458;50.966;7.002;2024-03-23T08:41:19;12.10;99.90
20384;DHT22;46458;50.966;7.002;2024-03-23T08:43:45;11.30;99.90
20384;DHT22;46458;50.966;7.002;2024-03-23T08:46:12;9.90;99.90
20384;DHT22;46458;50.966;7.002;2024-03-23T08:48:40;10.00;1.00
20384;DHT22;46458;50.966;7.002;2024-03-23T08:51:07;9.90;1.00
20384;DHT22;46458;50.966;7.002;2024-03-23T08:53:35;10.30;1.00
20384;DHT22;46458;50.966;7.002;2024-03-23T08:56:03;10.90;1.00
20384;DHT22;46458;50.966;7.002;2024-03-23T08:58:33;10.70;1.00
20384;DHT22;46458;50.966;7.002;2024-03-23T09:01:04;11.50;1.00
20384;DHT22;46458;50.966;7.002;2024-03-23T09:03:30;11.60;1.00
20384;DHT22;46458;50.966;7.002;2024-03-23T09:05:57;12.30;99.90
20384;DHT22;46458;50.966;7.002;2024-03-23T09:08:23;12.00;99.90
20384;DHT22;46458;50.966;7.002;2024-03-23T09:10:49;11.90;99.90
20384;DHT22;46458;50.966;7.002;2024-03-23T09:13:15;11.50;99.90
20384;DHT22;46458;50.966;7.002;2024-03-23T09:15:49;11.20;1.00
20384;DHT22;46458;50.966;7.002;2024-03-23T09:18:16;10.60;1.00
20384;DHT22;46458;50.966;7.002;2024-03-23T09:20:42;10.80;1.00
20384;DHT22;46458;50.966;7.002;2024-03-23T09:23:09;11.00;1.00
20384;DHT22;46458;50.966;7.002;2024-03-23T09:25:36;11.20;1.00
20384;DHT22;46458;50.966;7.002;2024-03-23T09:28:04;10.80;1.00
20384;DHT22;46458;50.966;7.002;2024-03-23T09:30:32;10.40;1.00
20384;DHT22;46458;50.966;7.002;2024-03-23T09:33:04;10.40;1.00
20384;DHT22;46458;50.966;7.002;2024-03-23T09:35:32;10.00;1.00
20384;DHT22;46458;50.966;7.002;2024-03-23T09:38:02;9.50;1.00
20384;DHT22;46458;50.966;7.002;2024-03-23T09:40:28;9.50;1.00
20384;DHT22;46458;50.966;7.002;2024-03-23T09:42:55;10.50;1.00
20384;DHT22;46458;50.966;7.002;2024-03-23T09:45:23;11.20;99.90
20384;DHT22;46458;50.966;7.002;2024-03-23T09:47:50;12.40;99.90
20384;DHT22;46458;50.966;7.002;2024-03-23T09:50:20;12.90;99.90
20384;DHT22;46458;50.966;7.002;2024-03-23T09:52:47;13.10;99.90
20384;DHT22;46458;50.966;7.002;2024-03-23T09:55:13;13.80;99.90
20384;DHT22;46458;50.966;7.002;2024-03-23T09:57:39;13.90;99.90
20384;DHT22;46458;50.966;7.002;2024-03-23T10:00:07;14.30;99.90
20384;DHT22;46458;50.966;7.002;2024-03-23T10:02:34;14.80;99.90
20384;DHT22;46458;50.966;7.002;2024-03-23T10:05:00;15.00;99.90
20384;DHT22;46458;50.966;7.002;2024-03-23T10:07:29;14.30;99.90
20384;DHT22;46458;50.966;7.002;2024-03-23T10:09:55;13.70;99.90
20384;DHT22;46458;50.966;7.002;2024-03-23T10:12:23;13.50;99.90
20384;DHT22;46458;50.966;7.002;2024-03-23T10:14:53;13.30;99.90
20384;DHT22;46458;50.966;7.002;2024-03-23T10:17:21;13.80;99.90
20384;DHT22;46458;50.966;7.002;2024-03-23T10:19:50;13.60;99.90
20384;DHT22;46458;50.966;7.002;2024-03-23T10:22:18;13.60;99.90
20384;DHT22;46458;50.966;7.002;2024-03-23T10:24:47;13.70;99.90
20384;DHT22;46458;50.966;7.002;2024-03-23T10:27:15;14.70;99.90
20384;DHT22;46458;50.966;7.002;2024-03-23T10:29:42;14.70;99.90
20384;DHT22;46458;50.966;7.002;2024-03-23T10:32:12;13.70;99.90
20384;DHT22;46458;50.966;7.002;2024-03-23T10:34:39;12.60;11.60
20384;DHT22;46458;50.966;7.002;2024-03-23T10:37:08;12.20;99.90
20384;DHT22;46458;50.966;7.002;2024-03-23T10:39:35;12.20;99.90
20384;DHT22;46458;50.966;7.002;2024-03-23T10:42:06;11.70;99.90
20384;DHT22;46458;50.966;7.002;2024-03-23T10:44:32;11.10;99.90
20384;DHT22;46458;50.966;7.002;2024-03-23T10:46:59;11.20;99.90
20384;DHT22;46458;50.966;7.002;2024-03-23T10:49:27;11.30;99.90
20384;DHT22;46458;50.966;7.002;2024-03-23T10:52:03;11.40;99.90
20384;DHT22;46458;50.966;7.002;2024-03-23T10:54:31;11.50;99.90
20384;DHT22;46458;50.966;7.002;2024-03-23T10:57:01;11.10;99.90
20384;DHT22;46458;50.966;7.002;2024-03-23T10:59:31;11.10;99.90
20384;DHT22;46458;50.966;7.002;2024-03-23T11:01:59;10.70;99.90
20384;DHT22;46458;50.966;7.002;2024-03-23T11:04:33;10.40;99.90
20384;DHT22;46458;50.966;7.002;2024-03-23T11:07:02;10.20;99.90
20384;DHT22;46458;50.966;7.002;2024-03-23T11:09:43;9.60;97.20
20384;DHT22;46458;50.966;7.002;2024-03-23T11:12:26;9.30;1.00
20384;DHT22;46458;50.966;7.002;2024-03-23T11:14:57;9.10;99.90
20384;DHT22;46458;50.966;7.002;2024-03-23T11:17:28;9.10;1.00
20384;DHT22;46458;50.966;7.002;2024-03-23T11:19:57;9.10;1.00
20384;DHT22;46458;50.966;7.002;2024-03-23T11:22:40;9.50;1.00
20384;DHT22;46458;50.966;7.002;2024-03-23T11:25:16;12.80;1.00
20384;DHT22;46458;50.966;7.002;2024-03-23T11:27:43;13.80;1.00
20384;DHT22;46458;50.966;7.002;2024-03-23T11:30:18;13.10;99.90
20384;DHT22;46458;50.966;7.002;2024-03-23T11:32:46;11.90;99.90
20384;DHT22;46458;50.966;7.002;2024-03-23T11:35:26;10.90;99.90
20384;DHT22;46458;50.966;7.002;2024-03-23T11:38:02;10.70;1.00
20384;DHT22;46458;50.966;7.002;2024-03-23T11:40:29;10.40;99.90
20384;DHT22;46458;50.966;7.002;2024-03-23T11:42:55;10.00;1.00
20384;DHT22;46458;50.966;7.002;2024-03-23T11:45:25;10.10;1.00
20384;DHT22;46458;50.966;7.002;2024-03-23T11:48:04;11.60;99.90
20384;DHT22;46458;50.966;7.002;2024-03-23T11:50:31;14.20;99.90
20384;DHT22;46458;50.966;7.002;2024-03-23T11:53:16;15.40;99.90
20384;DHT22;46458;50.966;7.002;2024-03-23T11:55:46;14.90;3.60
20384;DHT22;46458;50.966;7.002;2024-03-23T11:58:13;13.80;18.70
20384;DHT22;46458;50.966;7.002;2024-03-23T12:00:49;13.30;99.90
20384;DHT22;46458;50.966;7.002;2024-03-23T12:03:17;12.40;50.60
20384;DHT22;46458;50.966;7.002;2024-03-23T12:05:48;12.50;99.90
20384;DHT22;46458;50.966;7.002;2024-03-23T12:08:19;11.80;99.90
20384;DHT22;46458;50.966;7.002;2024-03-23T12:10:47;11.00;99.90
20384;DHT22;46458;50.966;7.002;2024-03-23T12:13:18;11.40;99.90
20384;DHT22;46458;50.966;7.002;2024-03-23T12:15:49;11.30;99.90
20384;DHT22;46458;50.966;7.002;2024-03-23T12:18:16;10.70;99.90
20384;DHT22;46458;50.966;7.002;2024-03-23T12:20:43;10.90;99.90
20384;DHT22;46458;50.966;7.002;2024-03-23T12:23:10;11.40;99.90
20384;DHT22;46458;50.966;7.002;2024-03-23T12:25:39;14.20;99.90
20384;DHT22;46458;50.966;7.002;2024-03-23T12:28:06;15.30;99.90
20384;DHT22;46458;50.966;7.002;2024-03-23T12:30:39;14.10;99.90
20384;DHT22;46458;50.966;7.002;2024-03-23T12:33:17;12.40;99.90
20384;DHT22;46458;50.966;7.002;2024-03-23T12:35:46;11.80;99.90
20384;DHT22;46458;50.966;7.002;2024-03-23T12:38:12;14.30;99.90
20384;DHT22;46458;50.966;7.002;2024-03-23T12:40:38;16.30;99.90
20384;DHT22;46458;50.966;7.002;2024-03-23T12:43:04;15.80;99.90
20384;DHT22;46458;50.966;7.002;2024-03-23T12:45:30;13.80;99.90
20384;DHT22;46458;50.966;7.002;2024-03-23T12:50:26;10.80;1.00
20384;DHT22;46458;50.966;7.002;2024-03-23T12:52:53;10.60;1.00
20384;DHT22;46458;50.966;7.002;2024-03-23T12:55:19;13.60;1.00
20384;DHT22;46458;50.966;7.002;2024-03-23T12:57:45;15.30;99.90
20384;DHT22;46458;50.966;7.002;2024-03-23T13:00:13;14.30;99.90
20384;DHT22;46458;50.966;7.002;2024-03-23T13:02:39;15.30;99.90
20384;DHT22;46458;50.966;7.002;2024-03-23T13:05:06;16.70;99.90
20384;DHT22;46458;50.966;7.002;2024-03-23T13:07:42;18.10;99.90
20384;DHT22;46458;50.966;7.002;2024-03-23T13:15:01;24.30;99.90
20384;DHT22;46458;50.966;7.002;2024-03-23T13:17:30;25.20;99.90
20384;DHT22;46458;50.966;7.002;2024-03-23T13:19:56;24.00;99.90
20384;DHT22;46458;50.966;7.002;2024-03-23T13:22:22;21.50;99.00
20384;DHT22;46458;50.966;7.002;2024-03-23T13:24:51;19.60;99.90
20384;DHT22;46458;50.966;7.002;2024-03-23T13:27:17;17.10;99.90
20384;DHT22;46458;50.966;7.002;2024-03-23T13:29:43;16.80;99.90
20384;DHT22;46458;50.966;7.002;2024-03-23T13:32:10;18.00;99.90
20384;DHT22;46458;50.966;7.002;2024-03-23T13:34:36;19.30;99.90
20384;DHT22;46458;50.966;7.002;2024-03-23T13:37:02;21.70;99.90
20384;DHT22;46458;50.966;7.002;2024-03-23T13:39:28;23.70;79.10
20384;DHT22;46458;50.966;7.002;2024-03-23T13:42:00;24.60;33.40
20384;DHT22;46458;50.966;7.002;2024-03-23T13:44:29;22.80;78.60
20384;DHT22;46458;50.966;7.002;2024-03-23T13:46:55;21.90;72.50
20384;DHT22;46458;50.966;7.002;2024-03-23T13:49:25;22.90;44.80
20384;DHT22;46458;50.966;7.002;2024-03-23T13:51:52;22.50;48.60
20384;DHT22;46458;50.966;7.002;2024-03-23T13:54:18;19.80;73.70
20384;DHT22;46458;50.966;7.002;2024-03-23T13:56:45;17.50;99.70
20384;DHT22;46458;50.966;7.002;2024-03-23T13:59:13;17.50;99.90
20384;DHT22;46458;50.966;7.002;2024-03-23T14:01:40;15.00;99.90
20384;DHT22;46458;50.966;7.002;2024-03-23T14:06:35;13.40;99.90
20384;DHT22;46458;50.966;7.002;2024-03-23T14:09:02;12.90;99.90
20384;DHT22;46458;50.966;7.002;2024-03-23T14:11:29;11.70;99.90
20384;DHT22;46458;50.966;7.002;2024-03-23T14:13:55;11.10;99.90
20384;DHT22;46458;50.966;7.002;2024-03-23T14:16:29;11.20;99.90
20384;DHT22;46458;50.966;7.002;2024-03-23T14:18:55;10.80;1.00
20384;DHT22;46458;50.966;7.002;2024-03-23T14:21:21;10.80;1.00
20384;DHT22;46458;50.966;7.002;2024-03-23T14:23:48;12.10;99.90
20384;DHT22;46458;50.966;7.002;2024-03-23T14:26:14;13.00;99.90
20384;DHT22;46458;50.966;7.002;2024-03-23T14:28:43;14.10;99.90
20384;DHT22;46458;50.966;7.002;2024-03-23T14:31:09;14.60;99.90
20384;DHT22;46458;50.966;7.002;2024-03-23T14:33:39;16.20;99.90
20384;DHT22;46458;50.966;7.002;2024-03-23T14:36:06;16.80;99.90
20384;DHT22;46458;50.966;7.002;2024-03-23T14:38:32;16.20;99.90
20384;DHT22;46458;50.966;7.002;2024-03-23T14:40:59;16.30;99.90
20384;DHT22;46458;50.966;7.002;2024-03-23T14:43:25;16.40;99.90
20384;DHT22;46458;50.966;7.002;2024-03-23T14:46:07;16.40;99.90
20384;DHT22;46458;50.966;7.002;2024-03-23T14:48:33;15.00;99.90
20384;DHT22;46458;50.966;7.002;2024-03-23T14:51:03;14.00;99.90
20384;DHT22;46458;50.966;7.002;2024-03-23T14:53:31;13.00;99.90
20384;DHT22;46458;50.966;7.002;2024-03-23T14:55:57;12.40;99.90
20384;DHT22;46458;50.966;7.002;2024-03-23T14:58:26;11.70;99.90
20384;DHT22;46458;50.966;7.002;2024-03-23T15:00:53;11.00;99.90
20384;DHT22;46458;50.966;7.002;2024-03-23T15:03:19;10.70;99.90
20384;DHT22;46458;50.966;7.002;2024-03-23T15:13:20;9.00;99.90
20384;DHT22;46458;50.966;7.002;2024-03-23T15:15:46;9.10;99.90
20384;DHT22;46458;50.966;7.002;2024-03-23T15:18:13;8.90;99.90
20384;DHT22;46458;50.966;7.002;2024-03-23T15:20:40;8.70;99.90
20384;DHT22;46458;50.966;7.002;2024-03-23T15:23:09;8.80;99.90
20384;DHT22;46458;50.966;7.002;2024-03-23T15:25:40;9.30;99.90
20384;DHT22;46458;50.966;7.002;2024-03-23T15:28:06;11.40;99.90
20384;DHT22;46458;50.966;7.002;2024-03-23T15:30:33;13.60;99.90
20384;DHT22;46458;50.966;7.002;2024-03-23T15:32:59;15.10;79.30
20384;DHT22;46458;50.966;7.002;2024-03-23T15:35:25;14.20;99.90
20384;DHT22;46458;50.966;7.002;2024-03-23T15:37:51;13.50;99.30
20384;DHT22;46458;50.966;7.002;2024-03-23T15:40:20;14.10;99.90
20384;DHT22;46458;50.966;7.002;2024-03-23T15:42:49;15.30;99.90
20384;DHT22;46458;50.966;7.002;2024-03-23T15:45:15;16.70;99.90
20384;DHT22;46458;50.966;7.002;2024-03-23T15:47:41;17.00;1.00
20384;DHT22;46458;50.966;7.002;2024-03-23T15:50:08;17.00;99.90
20384;DHT22;46458;50.966;7.002;2024-03-23T15:52:40;16.10;99.90
20384;DHT22;46458;50.966;7.002;2024-03-23T15:55:07;15.40;99.90
20384;DHT22;46458;50.966;7.002;2024-03-23T15:57:34;14.20;99.90
20384;DHT22;46458;50.966;7.002;2024-03-23T16:00:04;13.40;99.90
20384;DHT22;46458;50.966;7.002;2024-03-23T16:02:39;12.30;99.90
20384;DHT22;46458;50.966;7.002;2024-03-23T16:05:08;11.50;99.90
20384;DHT22;46458;50.966;7.002;2024-03-23T16:07:35;10.70;99.90
20384;DHT22;46458;50.966;7.002;2024-03-23T16:10:01;10.60;99.90
20384;DHT22;46458;50.966;7.002;2024-03-23T16:12:27;10.30;99.90
20384;DHT22;46458;50.966;7.002;2024-03-23T16:14:56;10.10;1.00
20384;DHT22;46458;50.966;7.002;2024-03-23T16:17:25;10.00;1.00
20384;DHT22;46458;50.966;7.002;2024-03-23T16:19:51;9.70;1.00
20384;DHT22;46458;50.966;7.002;2024-03-23T16:22:17;9.70;1.00
20384;DHT22;46458;50.966;7.002;2024-03-23T16:24:46;9.80;1.00
20384;DHT22;46458;50.966;7.002;2024-03-23T16:27:13;9.40;1.00
20384;DHT22;46458;50.966;7.002;2024-03-23T16:29:39;10.00;1.00
20384;DHT22;46458;50.966;7.002;2024-03-23T16:32:05;10.30;99.90
20384;DHT22;46458;50.966;7.002;2024-03-23T16:34:34;10.80;99.90
20384;DHT22;46458;50.966;7.002;2024-03-23T16:37:01;11.00;99.90
20384;DHT22;46458;50.966;7.002;2024-03-23T16:39:30;11.20;99.90
20384;DHT22;46458;50.966;7.002;2024-03-23T16:41:56;11.50;99.90
20384;DHT22;46458;50.966;7.002;2024-03-23T16:44:22;12.20;99.90
20384;DHT22;46458;50.966;7.002;2024-03-23T16:46:49;12.20;99.90
20384;DHT22;46458;50.966;7.002;2024-03-23T16:49:15;12.80;99.90
20384;DHT22;46458;50.966;7.002;2024-03-23T16:51:44;13.50;99.90
20384;DHT22;46458;50.966;7.002;2024-03-23T16:54:10;13.70;99.90
20384;DHT22;46458;50.966;7.002;2024-03-23T16:56:36;14.20;99.90
20384;DHT22;46458;50.966;7.002;2024-03-23T16:59:05;14.00;99.90
20384;DHT22;46458;50.966;7.002;2024-03-23T17:01:32;13.00;99.90
20384;DHT22;46458;50.966;7.002;2024-03-23T17:04:01;12.00;95.40